Jena Marie C. — WDD4969 — position and weather

sailwx.info

Track history (hours):
 
Tides and Currents Weather Stations Pressure Air Temp Water Temp Dewpoint Dewpoint Depression Visibility Wind Speed Wind Dir Waves Ship Positions

Jena Marie C.

Owner: Scott C. Marine Towing, LLC, Marrero, LA. More information available from US FCC via Universal Licensing System and Coast Guard Vessel Documentation Center.

Last reported at 2015-Aug-27 01:27 UTC. Time now 2015-Aug-27 20:47 UTC.
Position N 29°54' W 090°07'.

Length 19 m; draft 2.5 m.

Type: Towing. MMSI: 367151880.

Date/timePositionNaut miles runAvg speedWind from/ knotsBaromVisibWave heightAir tempDewpointWater temp
2015-Aug-27 01:27N 29°54' W 090°07'0 0.0
2015-Aug-27 00:31N 29°54' W 090°07'0 0.0
2015-Aug-26 23:32N 29°54' W 090°07'0 0.0
2015-Aug-26 22:32N 29°54' W 090°07'8 0.4
2015-Aug-26 02:10N 30°00' W 090°01'0 0.0
2015-Aug-26 01:14N 30°00' W 090°01'0 0.0
2015-Aug-25 23:31N 30°00' W 090°01'0 0.0
2015-Aug-25 22:13N 30°00' W 090°01'0 0.0
2015-Aug-25 21:28N 30°00' W 090°01'0 0.0
2015-Aug-25 20:31N 30°00' W 090°01'0 0.0
2015-Aug-25 19:29N 30°00' W 090°01'3 3.0
2015-Aug-25 18:30N 30°00' W 089°58'  
2015-Aug-23 06:05N 30°02' W 089°52'3 5.3
2015-Aug-23 05:32N 30°01' W 089°55'5 5.3
2015-Aug-23 04:32N 29°60' W 090°01'2 2.0
2015-Aug-23 03:33N 29°58' W 090°02'1 0.6
2015-Aug-23 02:31N 29°57' W 090°02'0 0.0
2015-Aug-23 01:34N 29°57' W 090°02'3 2.7
2015-Aug-23 00:26N 29°55' W 090°05'3 0.1
2015-Aug-22 02:05N 29°55' W 090°08'3 5.6
2015-Aug-22 01:31N 29°55' W 090°04'4 3.7
2015-Aug-22 00:33N 29°58' W 090°02'2 2.4
2015-Aug-21 23:31N 29°60' W 089°60'2 2.0
2015-Aug-21 22:32N 29°58' W 090°01'0 0.0
2015-Aug-21 21:29N 29°58' W 090°01'0 0.5
2015-Aug-21 20:25N 29°58' W 090°02'0 0.6
2015-Aug-21 19:32N 29°57' W 090°02'0 0.2
2015-Aug-21 18:30N 29°57' W 090°01'2 1.8
2015-Aug-21 17:26N 29°57' W 090°03'2 0.2
2015-Aug-21 04:20N 29°55' W 090°05'0 0.0
2015-Aug-21 02:32N 29°55' W 090°05'0 0.3
2015-Aug-21 01:33N 29°55' W 090°05'0 0.0
2015-Aug-20 23:32N 29°55' W 090°05'3 3.1
2015-Aug-20 22:31N 29°55' W 090°08'0 0.2
2015-Aug-20 20:32N 29°55' W 090°08'5 4.8
2015-Aug-20 19:33N 29°57' W 090°03'3 3.3
2015-Aug-20 18:33N 29°60' W 090°01'1 0.1
2015-Aug-20 03:25N 29°59' W 090°01'1 1.7
2015-Aug-20 02:33N 30°00' W 090°01'0 0.0
2015-Aug-20 01:33N 30°00' W 090°01'0 0.0
2015-Aug-20 00:33N 30°00' W 090°01'0 0.0
2015-Aug-19 23:33N 30°00' W 090°01'0 0.0
2015-Aug-19 22:27N 30°00' W 090°01'0 0.0
2015-Aug-19 21:33N 30°00' W 090°01'0 0.0
2015-Aug-19 20:33N 30°00' W 090°01'0 0.0
2015-Aug-19 19:33N 30°00' W 090°01'0 0.0
2015-Aug-19 18:33N 30°00' W 090°01'0 0.0
2015-Aug-19 17:33N 30°00' W 090°01'0 0.0
2015-Aug-19 16:32N 30°00' W 090°01'0 0.0
2015-Aug-19 15:32N 30°00' W 090°01'  
Track history (hours):
 
Tides and Currents Weather Stations Pressure Air Temp Water Temp Dewpoint Dewpoint Depression Visibility Wind Speed Wind Dir Waves Ship Positions

Jena Marie C.

Owner: Scott C. Marine Towing, LLC, Marrero, LA. More information available from US FCC via Universal Licensing System and Coast Guard Vessel Documentation Center.

Last reported at 2015-Aug-27 01:27 UTC. Time now 2015-Aug-27 20:48 UTC.
Position N 29°54' W 090°07'.

Length 19 m; draft 2.5 m.

Type: Towing. MMSI: 367151880.

Date/timePositionNaut miles runAvg speedWind from/ knotsBaromVisibWave heightAir tempDewpointWater temp
2015-Aug-27 01:27N 29°54' W 090°07'0 0.0
2015-Aug-27 00:31N 29°54' W 090°07'0 0.0
2015-Aug-26 23:32N 29°54' W 090°07'0 0.0
2015-Aug-26 22:32N 29°54' W 090°07'8 0.4
2015-Aug-26 02:10N 30°00' W 090°01'0 0.0
2015-Aug-26 01:14N 30°00' W 090°01'0 0.0
2015-Aug-25 23:31N 30°00' W 090°01'0 0.0
2015-Aug-25 22:13N 30°00' W 090°01'0 0.0
2015-Aug-25 21:28N 30°00' W 090°01'0 0.0
2015-Aug-25 20:31N 30°00' W 090°01'0 0.0
2015-Aug-25 19:29N 30°00' W 090°01'3 3.0
2015-Aug-25 18:30N 30°00' W 089°58'  
2015-Aug-23 06:05N 30°02' W 089°52'3 5.3
2015-Aug-23 05:32N 30°01' W 089°55'5 5.3
2015-Aug-23 04:32N 29°60' W 090°01'2 2.0
2015-Aug-23 03:33N 29°58' W 090°02'1 0.6
2015-Aug-23 02:31N 29°57' W 090°02'0 0.0
2015-Aug-23 01:34N 29°57' W 090°02'3 2.7
2015-Aug-23 00:26N 29°55' W 090°05'3 0.1
2015-Aug-22 02:05N 29°55' W 090°08'3 5.6
2015-Aug-22 01:31N 29°55' W 090°04'4 3.7
2015-Aug-22 00:33N 29°58' W 090°02'2 2.4
2015-Aug-21 23:31N 29°60' W 089°60'2 2.0
2015-Aug-21 22:32N 29°58' W 090°01'0 0.0
2015-Aug-21 21:29N 29°58' W 090°01'0 0.5
2015-Aug-21 20:25N 29°58' W 090°02'0 0.6
2015-Aug-21 19:32N 29°57' W 090°02'0 0.2
2015-Aug-21 18:30N 29°57' W 090°01'2 1.8
2015-Aug-21 17:26N 29°57' W 090°03'2 0.2
2015-Aug-21 04:20N 29°55' W 090°05'0 0.0
2015-Aug-21 02:32N 29°55' W 090°05'0 0.3
2015-Aug-21 01:33N 29°55' W 090°05'0 0.0
2015-Aug-20 23:32N 29°55' W 090°05'3 3.1
2015-Aug-20 22:31N 29°55' W 090°08'0 0.2
2015-Aug-20 20:32N 29°55' W 090°08'5 4.8
2015-Aug-20 19:33N 29°57' W 090°03'3 3.3
2015-Aug-20 18:33N 29°60' W 090°01'1 0.1
2015-Aug-20 03:25N 29°59' W 090°01'1 1.7
2015-Aug-20 02:33N 30°00' W 090°01'0 0.0
2015-Aug-20 01:33N 30°00' W 090°01'0 0.0
2015-Aug-20 00:33N 30°00' W 090°01'0 0.0
2015-Aug-19 23:33N 30°00' W 090°01'0 0.0
2015-Aug-19 22:27N 30°00' W 090°01'0 0.0
2015-Aug-19 21:33N 30°00' W 090°01'0 0.0
2015-Aug-19 20:33N 30°00' W 090°01'0 0.0
2015-Aug-19 19:33N 30°00' W 090°01'0 0.0
2015-Aug-19 18:33N 30°00' W 090°01'0 0.0
2015-Aug-19 17:33N 30°00' W 090°01'0 0.0
2015-Aug-19 16:32N 30°00' W 090°01'0 0.0
2015-Aug-19 15:32N 30°00' W 090°01'  

Dump ship's entire track history